Hassan, Minnesota
Current Conditions -  °F | °C
As of 2:53 PM on Thursday 23 Oct 2014 (Local Time) from KMIC Reporting Station
Clear Clear  
Wind Chill: 67°   Ceiling: Unl
Heat Index: 67°   Visibility: 10mi
Dew Point: 48°   Wind: 6mph
Humidity: 51%   Direction: 250°WSW
Pressure: 29.95"   Gusts: NA
Location:  45.1964°N, 93.4758°W
Report Text: KMIC 231953Z 25005KT 10SM CLR 19/09 A2995 RMK AO2 SLP140 T01940089
Loading
Personal Weather Stations






























Interactive Weather Map
Tropical Storm Tracking
New forecast layout! Learn more

10-Day Weather Forecast

Advertisements
Track Severe Weather on mobile